Dayton, TX (77535)

9:04 AM CDT on August 02, 2015 (GMT -0500)
Beautiful Downtown | | Change Station
CLOSE
Current Station
Personal Weather Station
Location: Dayton, TX
Elevation: 84 ft
Nearby Weather Stations

Elev 84 ft 30.05 °N, 94.89 °W | Updated 3 seconds ago

Clear
Clear
78.6 °F
Feels Like 81 °F
N
0.0
Wind Variable Wind from NE
Gusts 2.0 mph

Today
High -- | Low -- °F
--% Chance of Precip.
Yesterday
High -- | Low -- °F
Precip. -- in
6:39 AM 8:12 PM
Waning Gibbous, 94% visible
Pressure 29.94 in
Visibility 10.0 miles
Clouds Few 25000 ft
Heat Index 81 °F
Dew Point 72 °F
Humidity 80%
Rainfall 0.00 in
Snow Depth Not available.
UV 2 out of 12
Pollen 2.90 out of 12
Air Quality Not available.
Flu Activity Not available.
METAR KIAH 021353Z 35004KT 10SM FEW250 29/21 A2994 RMK AO2 SLP136 T02890206

More Conditions Fewer Conditions

Pressure 29.94 in
Visibility 10.0 miles
Clouds Few 25000 ft
Heat Index 81 °F
Dew Point 72 °F
Humidity 80%
Rainfall 0.00 in
Snow Depth Not available.
UV 2 out of 12
Pollen 2.90 out of 12
Air Quality Not available.
Flu Activity Not available.
METAR KIAH 021353Z 35004KT 10SM FEW250 29/21 A2994 RMK AO2 SLP136 T02890206

More Conditions Fewer Conditions

10-Day Weather Forecast

×

Almanac

Astronomy

Aug. 02, 2015 Rise Set
Actual Time
Civil Twilight
Nautical Twilight
Astronomical Twilight
Moon
Length of Visible Light
Length of Day
Tomorrow will be .
, % of the Moon is Illuminated

Today's Extremes

State Highs State Lows

Community

WunderPhotos

Upload Photos

1,843,256 photos uploaded!

WunderBlogs® & News

Nearby

Air Quality

  Air Quality AQ Index Pollutant
Not available.

Snow Depth

Station Depth Elevation

Earthquake Activity

City Distance Mag. Time & Date
Minimum magnitude displayed is 2.5.

Coastal Water Temperatures

Place Temperature

Stations

Nearby Weather Stations

Station Location Temp. Windchill Dew Point Humidity Wind Precip. Elev Updated Type